sensor_id;sensor_type;location;lat;lon;timestamp;P1;durP1;ratioP1;P2;durP2;ratioP2
51578;SDS011;47998;53.242;6.386;2022-07-10T00:01:06;12.68;;;0.90;;
51578;SDS011;47998;53.242;6.386;2022-07-10T00:03:32;6.18;;;1.27;;
51578;SDS011;47998;53.242;6.386;2022-07-10T00:05:57;11.07;;;1.30;;
51578;SDS011;47998;53.242;6.386;2022-07-10T00:08:23;13.00;;;2.55;;
51578;SDS011;47998;53.242;6.386;2022-07-10T00:10:49;9.80;;;1.65;;
51578;SDS011;47998;53.242;6.386;2022-07-10T00:13:15;8.98;;;1.40;;
51578;SDS011;47998;53.242;6.386;2022-07-10T00:15:41;9.95;;;1.33;;
51578;SDS011;47998;53.242;6.386;2022-07-10T00:18:06;10.30;;;1.35;;
51578;SDS011;47998;53.242;6.386;2022-07-10T00:20:32;13.23;;;2.00;;
51578;SDS011;47998;53.242;6.386;2022-07-10T00:22:58;9.00;;;1.40;;
51578;SDS011;47998;53.242;6.386;2022-07-10T00:25:24;7.00;;;1.10;;
51578;SDS011;47998;53.242;6.386;2022-07-10T00:27:50;12.57;;;1.63;;
51578;SDS011;47998;53.242;6.386;2022-07-10T00:30:16;12.38;;;2.25;;
51578;SDS011;47998;53.242;6.386;2022-07-10T00:32:41;13.07;;;1.70;;
51578;SDS011;47998;53.242;6.386;2022-07-10T00:35:07;12.07;;;1.38;;
51578;SDS011;47998;53.242;6.386;2022-07-10T00:37:33;10.30;;;1.38;;
51578;SDS011;47998;53.242;6.386;2022-07-10T00:39:59;15.93;;;1.90;;
51578;SDS011;47998;53.242;6.386;2022-07-10T00:42:25;14.32;;;2.28;;
51578;SDS011;47998;53.242;6.386;2022-07-10T00:44:52;9.23;;;1.50;;
51578;SDS011;47998;53.242;6.386;2022-07-10T00:47:18;8.63;;;1.27;;
51578;SDS011;47998;53.242;6.386;2022-07-10T00:49:45;11.80;;;1.63;;
51578;SDS011;47998;53.242;6.386;2022-07-10T00:52:17;14.15;;;2.20;;
51578;SDS011;47998;53.242;6.386;2022-07-10T00:54:44;8.88;;;1.35;;
51578;SDS011;47998;53.242;6.386;2022-07-10T00:57:12;9.05;;;1.08;;
51578;SDS011;47998;53.242;6.386;2022-07-10T00:59:39;13.13;;;1.30;;
51578;SDS011;47998;53.242;6.386;2022-07-10T01:02:06;8.27;;;1.35;;
51578;SDS011;47998;53.242;6.386;2022-07-10T01:04:32;9.57;;;1.45;;
51578;SDS011;47998;53.242;6.386;2022-07-10T01:06:58;9.73;;;1.55;;
51578;SDS011;47998;53.242;6.386;2022-07-10T01:09:24;9.27;;;1.38;;
51578;SDS011;47998;53.242;6.386;2022-07-10T01:11:50;7.00;;;1.15;;
51578;SDS011;47998;53.242;6.386;2022-07-10T01:14:16;6.07;;;0.80;;
51578;SDS011;47998;53.242;6.386;2022-07-10T01:16:43;4.18;;;0.80;;
51578;SDS011;47998;53.242;6.386;2022-07-10T01:19:09;10.43;;;1.98;;
51578;SDS011;47998;53.242;6.386;2022-07-10T01:21:35;5.40;;;0.98;;
51578;SDS011;47998;53.242;6.386;2022-07-10T01:24:08;9.82;;;2.50;;
51578;SDS011;47998;53.242;6.386;2022-07-10T01:26:35;4.70;;;1.10;;
51578;SDS011;47998;53.242;6.386;2022-07-10T01:29:03;6.35;;;0.70;;
51578;SDS011;47998;53.242;6.386;2022-07-10T01:31:30;8.73;;;1.02;;
51578;SDS011;47998;53.242;6.386;2022-07-10T01:33:56;12.40;;;1.83;;
51578;SDS011;47998;53.242;6.386;2022-07-10T01:36:23;11.43;;;2.08;;
51578;SDS011;47998;53.242;6.386;2022-07-10T01:38:53;7.18;;;1.20;;
51578;SDS011;47998;53.242;6.386;2022-07-10T01:41:19;8.43;;;1.17;;
51578;SDS011;47998;53.242;6.386;2022-07-10T01:43:45;7.72;;;0.68;;
51578;SDS011;47998;53.242;6.386;2022-07-10T01:46:13;9.93;;;2.10;;
51578;SDS011;47998;53.242;6.386;2022-07-10T01:48:39;12.60;;;1.35;;
51578;SDS011;47998;53.242;6.386;2022-07-10T01:51:05;8.32;;;1.77;;
51578;SDS011;47998;53.242;6.386;2022-07-10T01:53:32;6.07;;;1.20;;
51578;SDS011;47998;53.242;6.386;2022-07-10T01:55:58;8.05;;;1.00;;
51578;SDS011;47998;53.242;6.386;2022-07-10T01:58:25;8.32;;;1.30;;
51578;SDS011;47998;53.242;6.386;2022-07-10T02:00:51;10.70;;;1.20;;
51578;SDS011;47998;53.242;6.386;2022-07-10T02:03:17;11.15;;;1.70;;
51578;SDS011;47998;53.242;6.386;2022-07-10T02:06:01;8.60;;;1.40;;
51578;SDS011;47998;53.242;6.386;2022-07-10T02:08:26;8.90;;;1.27;;
51578;SDS011;47998;53.242;6.386;2022-07-10T02:10:52;8.82;;;1.45;;
51578;SDS011;47998;53.242;6.386;2022-07-10T02:13:19;6.63;;;1.08;;
51578;SDS011;47998;53.242;6.386;2022-07-10T02:15:48;8.18;;;1.52;;
51578;SDS011;47998;53.242;6.386;2022-07-10T02:18:14;11.65;;;1.25;;
51578;SDS011;47998;53.242;6.386;2022-07-10T02:20:40;11.88;;;2.25;;
51578;SDS011;47998;53.242;6.386;2022-07-10T02:23:06;6.63;;;1.30;;
51578;SDS011;47998;53.242;6.386;2022-07-10T02:25:32;17.45;;;1.65;;
51578;SDS011;47998;53.242;6.386;2022-07-10T02:27:59;9.18;;;1.23;;
51578;SDS011;47998;53.242;6.386;2022-07-10T02:30:25;6.40;;;1.15;;
51578;SDS011;47998;53.242;6.386;2022-07-10T02:32:50;14.93;;;2.50;;
51578;SDS011;47998;53.242;6.386;2022-07-10T02:35:16;6.45;;;1.25;;
51578;SDS011;47998;53.242;6.386;2022-07-10T02:37:42;9.50;;;1.55;;
51578;SDS011;47998;53.242;6.386;2022-07-10T02:40:08;6.70;;;1.05;;
51578;SDS011;47998;53.242;6.386;2022-07-10T02:42:34;16.23;;;1.63;;
51578;SDS011;47998;53.242;6.386;2022-07-10T02:44:59;11.48;;;1.40;;
51578;SDS011;47998;53.242;6.386;2022-07-10T02:47:25;9.20;;;1.40;;
51578;SDS011;47998;53.242;6.386;2022-07-10T02:49:51;8.77;;;1.05;;
51578;SDS011;47998;53.242;6.386;2022-07-10T02:52:16;10.88;;;2.50;;
51578;SDS011;47998;53.242;6.386;2022-07-10T02:54:42;10.13;;;1.20;;
51578;SDS011;47998;53.242;6.386;2022-07-10T02:57:08;14.70;;;2.92;;
51578;SDS011;47998;53.242;6.386;2022-07-10T02:59:34;11.73;;;1.58;;
51578;SDS011;47998;53.242;6.386;2022-07-10T03:01:59;12.02;;;1.30;;
51578;SDS011;47998;53.242;6.386;2022-07-10T03:04:26;12.15;;;2.22;;
51578;SDS011;47998;53.242;6.386;2022-07-10T03:06:52;7.93;;;1.35;;
51578;SDS011;47998;53.242;6.386;2022-07-10T03:09:17;13.30;;;2.08;;
51578;SDS011;47998;53.242;6.386;2022-07-10T03:11:43;6.38;;;1.17;;
51578;SDS011;47998;53.242;6.386;2022-07-10T03:14:09;7.82;;;1.00;;
51578;SDS011;47998;53.242;6.386;2022-07-10T03:16:35;8.95;;;1.25;;
51578;SDS011;47998;53.242;6.386;2022-07-10T03:19:00;9.50;;;1.05;;
51578;SDS011;47998;53.242;6.386;2022-07-10T03:21:26;9.02;;;1.40;;
51578;SDS011;47998;53.242;6.386;2022-07-10T03:23:52;6.88;;;1.80;;
51578;SDS011;47998;53.242;6.386;2022-07-10T03:26:17;10.98;;;1.70;;
51578;SDS011;47998;53.242;6.386;2022-07-10T03:28:43;15.30;;;1.83;;
51578;SDS011;47998;53.242;6.386;2022-07-10T03:31:09;6.35;;;1.38;;
51578;SDS011;47998;53.242;6.386;2022-07-10T03:33:34;8.52;;;1.45;;
51578;SDS011;47998;53.242;6.386;2022-07-10T03:36:00;10.00;;;1.45;;
51578;SDS011;47998;53.242;6.386;2022-07-10T03:38:28;10.07;;;1.48;;
51578;SDS011;47998;53.242;6.386;2022-07-10T03:40:54;9.85;;;1.30;;
51578;SDS011;47998;53.242;6.386;2022-07-10T03:43:20;10.90;;;2.72;;
51578;SDS011;47998;53.242;6.386;2022-07-10T03:45:46;9.43;;;1.85;;
51578;SDS011;47998;53.242;6.386;2022-07-10T03:48:11;9.05;;;1.15;;
51578;SDS011;47998;53.242;6.386;2022-07-10T03:50:37;10.73;;;2.35;;
51578;SDS011;47998;53.242;6.386;2022-07-10T03:53:03;9.27;;;1.67;;
51578;SDS011;47998;53.242;6.386;2022-07-10T03:55:28;10.13;;;1.40;;
51578;SDS011;47998;53.242;6.386;2022-07-10T03:57:54;12.93;;;1.80;;
51578;SDS011;47998;53.242;6.386;2022-07-10T04:00:22;6.97;;;1.40;;
51578;SDS011;47998;53.242;6.386;2022-07-10T04:02:53;11.20;;;1.67;;
51578;SDS011;47998;53.242;6.386;2022-07-10T04:05:29;8.70;;;1.70;;
51578;SDS011;47998;53.242;6.386;2022-07-10T04:07:56;11.25;;;1.83;;
51578;SDS011;47998;53.242;6.386;2022-07-10T04:10:23;17.63;;;2.55;;
51578;SDS011;47998;53.242;6.386;2022-07-10T04:12:49;9.68;;;1.38;;
51578;SDS011;47998;53.242;6.386;2022-07-10T04:15:15;11.38;;;1.45;;
51578;SDS011;47998;53.242;6.386;2022-07-10T04:17:41;11.35;;;1.35;;
51578;SDS011;47998;53.242;6.386;2022-07-10T04:20:08;14.43;;;1.60;;
51578;SDS011;47998;53.242;6.386;2022-07-10T04:22:34;10.65;;;2.33;;
51578;SDS011;47998;53.242;6.386;2022-07-10T04:25:00;7.13;;;1.48;;
51578;SDS011;47998;53.242;6.386;2022-07-10T04:27:26;13.00;;;1.60;;
51578;SDS011;47998;53.242;6.386;2022-07-10T04:29:52;8.65;;;1.30;;
51578;SDS011;47998;53.242;6.386;2022-07-10T04:32:18;12.73;;;1.52;;
51578;SDS011;47998;53.242;6.386;2022-07-10T04:34:43;12.52;;;2.30;;
51578;SDS011;47998;53.242;6.386;2022-07-10T04:37:09;13.98;;;2.58;;
51578;SDS011;47998;53.242;6.386;2022-07-10T04:39:35;14.13;;;3.00;;
51578;SDS011;47998;53.242;6.386;2022-07-10T04:42:03;15.32;;;2.17;;
51578;SDS011;47998;53.242;6.386;2022-07-10T04:44:29;10.70;;;1.17;;
51578;SDS011;47998;53.242;6.386;2022-07-10T04:46:56;12.00;;;2.35;;
51578;SDS011;47998;53.242;6.386;2022-07-10T04:49:22;7.22;;;1.25;;
51578;SDS011;47998;53.242;6.386;2022-07-10T04:51:47;10.50;;;1.45;;
51578;SDS011;47998;53.242;6.386;2022-07-10T04:54:13;8.10;;;1.30;;
51578;SDS011;47998;53.242;6.386;2022-07-10T04:56:39;10.13;;;1.73;;
51578;SDS011;47998;53.242;6.386;2022-07-10T04:59:05;9.63;;;1.25;;
51578;SDS011;47998;53.242;6.386;2022-07-10T05:01:31;7.45;;;2.40;;
51578;SDS011;47998;53.242;6.386;2022-07-10T05:03:57;12.43;;;1.40;;
51578;SDS011;47998;53.242;6.386;2022-07-10T05:06:23;12.27;;;1.98;;
51578;SDS011;47998;53.242;6.386;2022-07-10T05:08:48;8.02;;;1.30;;
51578;SDS011;47998;53.242;6.386;2022-07-10T05:11:14;10.23;;;1.30;;
51578;SDS011;47998;53.242;6.386;2022-07-10T05:13:41;11.38;;;1.67;;
51578;SDS011;47998;53.242;6.386;2022-07-10T05:16:10;7.82;;;1.48;;
51578;SDS011;47998;53.242;6.386;2022-07-10T05:18:38;9.10;;;1.60;;
51578;SDS011;47998;53.242;6.386;2022-07-10T05:21:05;7.72;;;1.45;;
51578;SDS011;47998;53.242;6.386;2022-07-10T05:23:31;9.80;;;1.35;;
51578;SDS011;47998;53.242;6.386;2022-07-10T05:25:57;14.18;;;1.85;;
51578;SDS011;47998;53.242;6.386;2022-07-10T05:28:23;8.90;;;1.42;;
51578;SDS011;47998;53.242;6.386;2022-07-10T05:30:48;7.47;;;1.25;;
51578;SDS011;47998;53.242;6.386;2022-07-10T05:33:17;8.07;;;1.50;;
51578;SDS011;47998;53.242;6.386;2022-07-10T05:35:43;8.57;;;2.10;;
51578;SDS011;47998;53.242;6.386;2022-07-10T05:38:09;8.55;;;1.20;;
51578;SDS011;47998;53.242;6.386;2022-07-10T05:40:34;8.80;;;2.33;;
51578;SDS011;47998;53.242;6.386;2022-07-10T05:43:00;8.40;;;1.25;;
51578;SDS011;47998;53.242;6.386;2022-07-10T05:45:26;11.65;;;1.50;;
51578;SDS011;47998;53.242;6.386;2022-07-10T05:47:52;8.98;;;1.67;;
51578;SDS011;47998;53.242;6.386;2022-07-10T05:50:18;8.98;;;1.50;;
51578;SDS011;47998;53.242;6.386;2022-07-10T05:52:44;10.88;;;1.10;;
51578;SDS011;47998;53.242;6.386;2022-07-10T05:55:10;11.18;;;2.13;;
51578;SDS011;47998;53.242;6.386;2022-07-10T05:57:35;8.13;;;1.27;;
51578;SDS011;47998;53.242;6.386;2022-07-10T06:00:04;10.23;;;1.52;;
51578;SDS011;47998;53.242;6.386;2022-07-10T06:02:31;10.95;;;1.38;;
51578;SDS011;47998;53.242;6.386;2022-07-10T06:04:57;9.40;;;1.55;;
51578;SDS011;47998;53.242;6.386;2022-07-10T06:07:22;9.95;;;1.80;;
51578;SDS011;47998;53.242;6.386;2022-07-10T06:09:48;7.97;;;2.03;;
51578;SDS011;47998;53.242;6.386;2022-07-10T06:12:14;8.20;;;1.25;;
51578;SDS011;47998;53.242;6.386;2022-07-10T06:14:41;6.07;;;1.13;;
51578;SDS011;47998;53.242;6.386;2022-07-10T06:17:07;9.27;;;1.90;;
51578;SDS011;47998;53.242;6.386;2022-07-10T06:19:33;8.82;;;1.42;;
51578;SDS011;47998;53.242;6.386;2022-07-10T06:21:59;8.65;;;0.90;;
51578;SDS011;47998;53.242;6.386;2022-07-10T06:24:42;8.35;;;1.38;;
51578;SDS011;47998;53.242;6.386;2022-07-10T06:27:08;5.32;;;1.17;;
51578;SDS011;47998;53.242;6.386;2022-07-10T06:29:34;6.72;;;1.92;;
51578;SDS011;47998;53.242;6.386;2022-07-10T06:32:00;8.20;;;0.88;;
51578;SDS011;47998;53.242;6.386;2022-07-10T06:34:26;7.10;;;0.75;;
51578;SDS011;47998;53.242;6.386;2022-07-10T06:36:52;5.18;;;0.95;;
51578;SDS011;47998;53.242;6.386;2022-07-10T06:39:17;3.05;;;0.60;;
51578;SDS011;47998;53.242;6.386;2022-07-10T06:41:43;3.58;;;1.23;;
51578;SDS011;47998;53.242;6.386;2022-07-10T06:44:09;5.45;;;0.80;;
51578;SDS011;47998;53.242;6.386;2022-07-10T06:46:34;6.78;;;1.15;;
51578;SDS011;47998;53.242;6.386;2022-07-10T06:49:00;4.70;;;0.90;;
51578;SDS011;47998;53.242;6.386;2022-07-10T06:51:26;4.38;;;0.82;;
51578;SDS011;47998;53.242;6.386;2022-07-10T06:53:52;8.73;;;1.13;;
51578;SDS011;47998;53.242;6.386;2022-07-10T06:56:17;6.50;;;0.82;;
51578;SDS011;47998;53.242;6.386;2022-07-10T06:58:44;7.40;;;1.00;;
51578;SDS011;47998;53.242;6.386;2022-07-10T07:01:09;9.68;;;1.23;;
51578;SDS011;47998;53.242;6.386;2022-07-10T07:03:35;7.45;;;2.20;;
51578;SDS011;47998;53.242;6.386;2022-07-10T07:06:01;10.55;;;1.65;;
51578;SDS011;47998;53.242;6.386;2022-07-10T07:08:28;10.00;;;1.60;;
51578;SDS011;47998;53.242;6.386;2022-07-10T07:10:54;9.77;;;1.70;;
51578;SDS011;47998;53.242;6.386;2022-07-10T07:13:20;7.88;;;1.85;;
51578;SDS011;47998;53.242;6.386;2022-07-10T07:15:46;9.82;;;2.05;;
51578;SDS011;47998;53.242;6.386;2022-07-10T07:18:21;8.40;;;2.33;;
51578;SDS011;47998;53.242;6.386;2022-07-10T07:20:56;6.03;;;1.15;;
51578;SDS011;47998;53.242;6.386;2022-07-10T07:23:41;8.55;;;2.17;;
51578;SDS011;47998;53.242;6.386;2022-07-10T07:26:07;12.88;;;2.15;;
51578;SDS011;47998;53.242;6.386;2022-07-10T07:28:32;6.65;;;1.27;;
51578;SDS011;47998;53.242;6.386;2022-07-10T07:30:58;10.65;;;1.10;;
51578;SDS011;47998;53.242;6.386;2022-07-10T07:33:24;5.85;;;1.00;;
51578;SDS011;47998;53.242;6.386;2022-07-10T07:35:50;9.15;;;1.90;;
51578;SDS011;47998;53.242;6.386;2022-07-10T07:38:16;11.20;;;1.45;;
51578;SDS011;47998;53.242;6.386;2022-07-10T07:40:42;6.63;;;1.42;;
51578;SDS011;47998;53.242;6.386;2022-07-10T07:43:08;4.55;;;0.85;;
51578;SDS011;47998;53.242;6.386;2022-07-10T07:45:34;5.50;;;1.27;;
51578;SDS011;47998;53.242;6.386;2022-07-10T07:48:00;6.88;;;1.13;;
51578;SDS011;47998;53.242;6.386;2022-07-10T07:50:36;6.57;;;1.15;;
51578;SDS011;47998;53.242;6.386;2022-07-10T07:53:02;2.92;;;0.73;;
51578;SDS011;47998;53.242;6.386;2022-07-10T07:55:29;5.03;;;0.68;;
51578;SDS011;47998;53.242;6.386;2022-07-10T07:57:56;3.05;;;0.40;;
51578;SDS011;47998;53.242;6.386;2022-07-10T08:00:23;7.53;;;0.73;;
51578;SDS011;47998;53.242;6.386;2022-07-10T08:02:50;2.45;;;0.30;;
51578;SDS011;47998;53.242;6.386;2022-07-10T08:05:17;3.08;;;0.47;;
51578;SDS011;47998;53.242;6.386;2022-07-10T08:07:44;2.08;;;0.30;;
51578;SDS011;47998;53.242;6.386;2022-07-10T08:10:16;2.22;;;0.40;;
51578;SDS011;47998;53.242;6.386;2022-07-10T08:12:43;4.03;;;0.40;;
51578;SDS011;47998;53.242;6.386;2022-07-10T08:15:11;2.15;;;0.20;;
51578;SDS011;47998;53.242;6.386;2022-07-10T08:17:39;3.45;;;0.40;;
51578;SDS011;47998;53.242;6.386;2022-07-10T08:20:06;6.50;;;0.95;;
51578;SDS011;47998;53.242;6.386;2022-07-10T08:22:33;3.60;;;0.82;;
51578;SDS011;47998;53.242;6.386;2022-07-10T08:24:59;6.03;;;1.35;;
51578;SDS011;47998;53.242;6.386;2022-07-10T08:27:25;4.43;;;0.50;;
51578;SDS011;47998;53.242;6.386;2022-07-10T08:29:51;5.15;;;0.73;;
51578;SDS011;47998;53.242;6.386;2022-07-10T08:32:17;9.32;;;1.27;;
51578;SDS011;47998;53.242;6.386;2022-07-10T08:34:43;3.42;;;0.85;;
51578;SDS011;47998;53.242;6.386;2022-07-10T08:37:09;6.50;;;1.05;;
51578;SDS011;47998;53.242;6.386;2022-07-10T08:39:35;4.20;;;0.80;;
51578;SDS011;47998;53.242;6.386;2022-07-10T08:42:00;7.18;;;1.30;;
51578;SDS011;47998;53.242;6.386;2022-07-10T08:44:29;9.68;;;1.40;;
51578;SDS011;47998;53.242;6.386;2022-07-10T08:46:57;12.15;;;1.73;;
51578;SDS011;47998;53.242;6.386;2022-07-10T08:49:27;7.43;;;1.38;;
51578;SDS011;47998;53.242;6.386;2022-07-10T08:52:02;8.95;;;1.23;;
51578;SDS011;47998;53.242;6.386;2022-07-10T08:54:34;5.85;;;1.42;;
51578;SDS011;47998;53.242;6.386;2022-07-10T08:57:02;6.93;;;1.45;;
51578;SDS011;47998;53.242;6.386;2022-07-10T08:59:28;6.47;;;1.23;;
51578;SDS011;47998;53.242;6.386;2022-07-10T09:01:54;7.55;;;1.63;;
51578;SDS011;47998;53.242;6.386;2022-07-10T09:04:21;7.55;;;1.20;;
51578;SDS011;47998;53.242;6.386;2022-07-10T09:06:48;4.13;;;1.00;;
51578;SDS011;47998;53.242;6.386;2022-07-10T09:09:18;7.53;;;1.60;;
51578;SDS011;47998;53.242;6.386;2022-07-10T09:11:44;6.07;;;1.48;;
51578;SDS011;47998;53.242;6.386;2022-07-10T09:14:11;9.38;;;2.20;;
51578;SDS011;47998;53.242;6.386;2022-07-10T09:16:45;9.02;;;2.60;;
51578;SDS011;47998;53.242;6.386;2022-07-10T09:19:22;9.80;;;3.10;;
51578;SDS011;47998;53.242;6.386;2022-07-10T09:21:50;15.68;;;3.33;;
51578;SDS011;47998;53.242;6.386;2022-07-10T09:24:18;10.30;;;2.60;;
51578;SDS011;47998;53.242;6.386;2022-07-10T09:29:22;9.07;;;2.80;;
51578;SDS011;47998;53.242;6.386;2022-07-10T09:31:58;11.20;;;3.58;;
51578;SDS011;47998;53.242;6.386;2022-07-10T09:34:41;9.25;;;3.35;;
51578;SDS011;47998;53.242;6.386;2022-07-10T09:40:00;13.43;;;3.45;;
51578;SDS011;47998;53.242;6.386;2022-07-10T09:42:31;12.57;;;2.63;;
51578;SDS011;47998;53.242;6.386;2022-07-10T09:47:55;11.45;;;3.05;;
51578;SDS011;47998;53.242;6.386;2022-07-10T09:50:24;11.18;;;3.30;;
51578;SDS011;47998;53.242;6.386;2022-07-10T09:52:52;14.48;;;3.50;;
51578;SDS011;47998;53.242;6.386;2022-07-10T09:55:24;11.65;;;2.85;;
51578;SDS011;47998;53.242;6.386;2022-07-10T09:57:55;14.43;;;3.30;;
51578;SDS011;47998;53.242;6.386;2022-07-10T10:00:23;16.75;;;3.92;;
51578;SDS011;47998;53.242;6.386;2022-07-10T10:02:53;10.88;;;2.97;;
51578;SDS011;47998;53.242;6.386;2022-07-10T10:05:34;14.07;;;3.45;;
51578;SDS011;47998;53.242;6.386;2022-07-10T10:08:04;12.45;;;3.00;;
51578;SDS011;47998;53.242;6.386;2022-07-10T10:10:34;10.73;;;3.47;;
51578;SDS011;47998;53.242;6.386;2022-07-10T10:13:01;16.33;;;3.55;;
51578;SDS011;47998;53.242;6.386;2022-07-10T10:15:31;12.27;;;3.97;;
51578;SDS011;47998;53.242;6.386;2022-07-10T10:17:58;13.63;;;3.15;;
51578;SDS011;47998;53.242;6.386;2022-07-10T10:20:27;12.07;;;3.20;;
51578;SDS011;47998;53.242;6.386;2022-07-10T10:23:05;9.27;;;3.45;;
51578;SDS011;47998;53.242;6.386;2022-07-10T10:25:37;15.50;;;4.63;;
51578;SDS011;47998;53.242;6.386;2022-07-10T10:28:05;10.35;;;2.95;;
51578;SDS011;47998;53.242;6.386;2022-07-10T10:30:33;8.70;;;2.20;;
51578;SDS011;47998;53.242;6.386;2022-07-10T10:34:09;11.07;;;3.00;;
51578;SDS011;47998;53.242;6.386;2022-07-10T10:36:08;10.70;;;2.60;;
51578;SDS011;47998;53.242;6.386;2022-07-10T10:49:23;8.40;;;1.80;;
51578;SDS011;47998;53.242;6.386;2022-07-10T10:54:21;9.95;;;2.10;;
51578;SDS011;47998;53.242;6.386;2022-07-10T10:59:52;4.78;;;2.08;;
51578;SDS011;47998;53.242;6.386;2022-07-10T11:04:51;7.65;;;1.70;;
51578;SDS011;47998;53.242;6.386;2022-07-10T11:07:56;6.03;;;2.03;;
51578;SDS011;47998;53.242;6.386;2022-07-10T11:10:41;10.85;;;1.88;;
51578;SDS011;47998;53.242;6.386;2022-07-10T11:13:13;6.72;;;1.48;;
51578;SDS011;47998;53.242;6.386;2022-07-10T11:15:41;8.90;;;1.48;;
51578;SDS011;47998;53.242;6.386;2022-07-10T11:18:10;10.55;;;1.83;;
51578;SDS011;47998;53.242;6.386;2022-07-10T11:29:00;6.15;;;1.70;;
51578;SDS011;47998;53.242;6.386;2022-07-10T11:31:24;6.05;;;1.52;;
51578;SDS011;47998;53.242;6.386;2022-07-10T11:33:52;6.15;;;1.90;;
51578;SDS011;47998;53.242;6.386;2022-07-10T11:38:59;10.48;;;1.83;;
51578;SDS011;47998;53.242;6.386;2022-07-10T11:41:32;8.55;;;2.15;;
51578;SDS011;47998;53.242;6.386;2022-07-10T11:44:12;11.50;;;2.55;;
51578;SDS011;47998;53.242;6.386;2022-07-10T11:46:39;8.38;;;1.88;;
51578;SDS011;47998;53.242;6.386;2022-07-10T11:49:07;10.25;;;2.22;;
51578;SDS011;47998;53.242;6.386;2022-07-10T11:51:37;9.43;;;2.13;;
51578;SDS011;47998;53.242;6.386;2022-07-10T11:56:37;6.68;;;2.20;;
51578;SDS011;47998;53.242;6.386;2022-07-10T11:59:06;7.72;;;1.88;;
51578;SDS011;47998;53.242;6.386;2022-07-10T12:01:46;5.82;;;1.92;;
51578;SDS011;47998;53.242;6.386;2022-07-10T12:04:13;10.13;;;2.40;;
51578;SDS011;47998;53.242;6.386;2022-07-10T12:06:42;11.38;;;2.35;;
51578;SDS011;47998;53.242;6.386;2022-07-10T12:09:12;6.60;;;2.33;;
51578;SDS011;47998;53.242;6.386;2022-07-10T12:11:40;5.35;;;1.90;;
51578;SDS011;47998;53.242;6.386;2022-07-10T12:14:13;6.82;;;3.08;;
51578;SDS011;47998;53.242;6.386;2022-07-10T12:16:49;5.90;;;2.22;;
51578;SDS011;47998;53.242;6.386;2022-07-10T12:19:22;9.25;;;1.75;;
51578;SDS011;47998;53.242;6.386;2022-07-10T12:21:58;9.68;;;1.60;;
51578;SDS011;47998;53.242;6.386;2022-07-10T12:24:25;6.07;;;1.83;;
51578;SDS011;47998;53.242;6.386;2022-07-10T12:26:52;7.47;;;1.70;;
51578;SDS011;47998;53.242;6.386;2022-07-10T12:29:23;8.30;;;1.45;;
51578;SDS011;47998;53.242;6.386;2022-07-10T12:31:53;7.80;;;2.40;;
51578;SDS011;47998;53.242;6.386;2022-07-10T12:34:32;2.95;;;1.20;;
51578;SDS011;47998;53.242;6.386;2022-07-10T12:37:10;6.07;;;1.40;;
51578;SDS011;47998;53.242;6.386;2022-07-10T12:39:37;7.20;;;1.80;;
51578;SDS011;47998;53.242;6.386;2022-07-10T12:42:31;7.15;;;1.77;;
51578;SDS011;47998;53.242;6.386;2022-07-10T12:45:10;10.55;;;2.22;;
51578;SDS011;47998;53.242;6.386;2022-07-10T12:47:47;7.65;;;2.00;;
51578;SDS011;47998;53.242;6.386;2022-07-10T12:50:14;6.60;;;2.13;;
51578;SDS011;47998;53.242;6.386;2022-07-10T12:52:43;10.93;;;2.67;;
51578;SDS011;47998;53.242;6.386;2022-07-10T13:00:16;10.63;;;2.80;;
51578;SDS011;47998;53.242;6.386;2022-07-10T13:02:45;9.70;;;3.45;;
51578;SDS011;47998;53.242;6.386;2022-07-10T13:05:24;11.43;;;3.70;;
51578;SDS011;47998;53.242;6.386;2022-07-10T13:07:51;8.48;;;2.75;;
51578;SDS011;47998;53.242;6.386;2022-07-10T13:10:17;11.05;;;3.28;;
51578;SDS011;47998;53.242;6.386;2022-07-10T13:12:43;11.93;;;3.10;;
51578;SDS011;47998;53.242;6.386;2022-07-10T13:15:09;7.55;;;3.80;;
51578;SDS011;47998;53.242;6.386;2022-07-10T13:17:42;10.05;;;3.90;;
51578;SDS011;47998;53.242;6.386;2022-07-10T13:20:09;11.18;;;3.72;;
51578;SDS011;47998;53.242;6.386;2022-07-10T13:22:38;8.13;;;2.95;;
51578;SDS011;47998;53.242;6.386;2022-07-10T13:25:04;12.73;;;3.17;;
51578;SDS011;47998;53.242;6.386;2022-07-10T13:27:30;9.50;;;2.75;;
51578;SDS011;47998;53.242;6.386;2022-07-10T13:29:57;10.13;;;2.83;;
51578;SDS011;47998;53.242;6.386;2022-07-10T13:32:23;11.77;;;3.13;;
51578;SDS011;47998;53.242;6.386;2022-07-10T13:34:50;8.20;;;2.60;;
51578;SDS011;47998;53.242;6.386;2022-07-10T13:37:18;10.43;;;2.13;;
51578;SDS011;47998;53.242;6.386;2022-07-10T13:39:44;6.25;;;1.70;;
51578;SDS011;47998;53.242;6.386;2022-07-10T13:42:09;9.32;;;2.10;;
51578;SDS011;47998;53.242;6.386;2022-07-10T13:44:35;9.38;;;1.73;;
51578;SDS011;47998;53.242;6.386;2022-07-10T13:47:04;9.48;;;2.28;;
51578;SDS011;47998;53.242;6.386;2022-07-10T13:49:32;7.90;;;1.70;;
51578;SDS011;47998;53.242;6.386;2022-07-10T13:51:58;5.82;;;1.33;;
51578;SDS011;47998;53.242;6.386;2022-07-10T13:54:23;7.68;;;1.33;;
51578;SDS011;47998;53.242;6.386;2022-07-10T13:56:49;4.70;;;1.92;;
51578;SDS011;47998;53.242;6.386;2022-07-10T13:59:15;9.15;;;1.73;;
51578;SDS011;47998;53.242;6.386;2022-07-10T14:01:44;6.30;;;1.10;;
51578;SDS011;47998;53.242;6.386;2022-07-10T14:04:09;2.63;;;1.20;;
51578;SDS011;47998;53.242;6.386;2022-07-10T14:06:35;3.95;;;1.02;;
51578;SDS011;47998;53.242;6.386;2022-07-10T14:09:01;3.80;;;1.13;;
51578;SDS011;47998;53.242;6.386;2022-07-10T14:11:26;4.32;;;1.33;;
51578;SDS011;47998;53.242;6.386;2022-07-10T14:13:52;6.45;;;0.80;;
51578;SDS011;47998;53.242;6.386;2022-07-10T14:16:18;4.70;;;0.93;;
51578;SDS011;47998;53.242;6.386;2022-07-10T14:18:43;5.88;;;1.08;;
51578;SDS011;47998;53.242;6.386;2022-07-10T14:21:09;5.72;;;1.40;;
51578;SDS011;47998;53.242;6.386;2022-07-10T14:23:39;5.07;;;1.13;;
51578;SDS011;47998;53.242;6.386;2022-07-10T14:26:07;2.65;;;0.73;;
51578;SDS011;47998;53.242;6.386;2022-07-10T14:28:33;2.47;;;0.95;;
51578;SDS011;47998;53.242;6.386;2022-07-10T14:31:02;6.03;;;1.45;;
51578;SDS011;47998;53.242;6.386;2022-07-10T14:33:30;5.38;;;1.30;;
51578;SDS011;47998;53.242;6.386;2022-07-10T14:35:56;7.70;;;1.10;;
51578;SDS011;47998;53.242;6.386;2022-07-10T14:38:25;6.65;;;1.10;;
51578;SDS011;47998;53.242;6.386;2022-07-10T14:40:50;2.83;;;1.13;;
51578;SDS011;47998;53.242;6.386;2022-07-10T14:43:18;3.95;;;1.10;;
51578;SDS011;47998;53.242;6.386;2022-07-10T14:45:45;6.63;;;1.40;;
51578;SDS011;47998;53.242;6.386;2022-07-10T14:48:13;5.50;;;0.90;;
51578;SDS011;47998;53.242;6.386;2022-07-10T14:50:39;5.72;;;1.33;;
51578;SDS011;47998;53.242;6.386;2022-07-10T14:53:10;4.18;;;1.15;;
51578;SDS011;47998;53.242;6.386;2022-07-10T14:55:38;5.50;;;1.08;;
51578;SDS011;47998;53.242;6.386;2022-07-10T14:58:09;4.55;;;1.25;;
51578;SDS011;47998;53.242;6.386;2022-07-10T15:00:34;4.45;;;1.38;;
51578;SDS011;47998;53.242;6.386;2022-07-10T15:03:01;6.97;;;1.52;;
51578;SDS011;47998;53.242;6.386;2022-07-10T15:05:26;6.63;;;1.10;;
51578;SDS011;47998;53.242;6.386;2022-07-10T15:07:52;6.97;;;1.13;;
51578;SDS011;47998;53.242;6.386;2022-07-10T15:10:17;5.47;;;1.35;;
51578;SDS011;47998;53.242;6.386;2022-07-10T15:12:46;6.80;;;1.50;;
51578;SDS011;47998;53.242;6.386;2022-07-10T15:15:12;6.78;;;1.42;;
51578;SDS011;47998;53.242;6.386;2022-07-10T15:17:38;5.97;;;0.95;;
51578;SDS011;47998;53.242;6.386;2022-07-10T15:20:04;5.78;;;1.13;;
51578;SDS011;47998;53.242;6.386;2022-07-10T15:22:33;4.78;;;1.30;;
51578;SDS011;47998;53.242;6.386;2022-07-10T15:24:59;5.38;;;1.17;;
51578;SDS011;47998;53.242;6.386;2022-07-10T15:27:25;4.85;;;1.30;;
51578;SDS011;47998;53.242;6.386;2022-07-10T15:29:52;7.70;;;2.13;;
51578;SDS011;47998;53.242;6.386;2022-07-10T15:32:21;5.85;;;1.20;;